Airfield :
LOGIN :

Register | Disclaimer

   EN    FR    IT 

 










Legend :    VFR   Marginal VFR   IFR   Intensive IFR   Very Intensive IFR
Visi :
Ceiling :
>= 8 km
>= 3000ft
5 to 8 km
1000 to 3000 ft
1500m to 5 km
500 to 1000 ft
800 to 1500m
200 to 500 ft
< 800m
< 200 ft
Symbols :   Thunderstorms  Fog  Heavy snow  Heavy precipitations  Wind > 20 kt
SIGMETs :     Misc.  Thunderstorms  Icing  Turbulence  Mountain Waves  Volcanic Ashes






- Airport Elevation : 13 ft
- IATA code : LYX


EGMD - Lydd

CURRENT METAR :
  • 200020Z AUTO 31004KT 9999 NCD 08/07 Q1006

EXPIRED METARs :
  • 192350Z AUTO 30004KT 9999 NCD 09/07 Q1006
  • 192320Z AUTO 30003KT 9999 NCD 09/07 Q1006
  • 192250Z AUTO 31006KT 9999 SCT045/// 09/07 Q1006
  • 192220Z AUTO 30005KT 9999 NCD 09/08 Q1005
  • 192150Z AUTO 32005KT 9999 NCD 09/08 Q1005

TAF TAF EGMD
Valid from the 20 at 00:00 until the 20 at 09:00 UTC


192304Z 2000/2009 VRB03KT 9999 FEW030
BECMG 2000/2003 36010KT
PROB40
TEMPO 2003/2009 7000
TEMPO 2008/2009 BKN012
ATIS : +44 1797 322 422



MET'MAP, your aeronautical weather chart ! - Copyright ORBIFLY December 2007 - Disclaimer

ORBIFLY MET'MAP TEAM :

Programming & Development : Alexandra Zaïnal
Concept & Development : Baudouin d'Aumeries
Co-Development & Prog : Marc-Olivier Méhu
Technical & hardware support : Manuel Goepfert

Contact : metmap@orbifly.com




SOURCES & CREDITS :

   NOAA